createdAt,value
2023-01-08T00:00:17.461Z,11.00
2023-01-08T00:02:44.424Z,11.00
2023-01-08T00:05:11.548Z,11.00
2023-01-08T00:07:38.705Z,11.10
2023-01-08T00:10:06.279Z,11.10
2023-01-08T00:12:34.602Z,11.10
2023-01-08T00:15:01.643Z,11.00
2023-01-08T00:17:28.792Z,11.00
2023-01-08T00:19:58.988Z,11.00
2023-01-08T00:22:28.464Z,11.00
2023-01-08T00:24:55.412Z,11.00
2023-01-08T00:27:22.394Z,11.00
2023-01-08T00:29:49.605Z,11.00
2023-01-08T00:32:16.639Z,11.10
2023-01-08T00:34:43.807Z,11.10
2023-01-08T00:37:10.860Z,11.10
2023-01-08T00:39:37.965Z,11.10
2023-01-08T00:42:05.300Z,11.10
2023-01-08T00:44:32.140Z,11.00
2023-01-08T00:46:59.003Z,11.10
2023-01-08T00:49:25.908Z,11.10
2023-01-08T00:51:52.865Z,11.10
2023-01-08T00:54:19.836Z,11.10
2023-01-08T00:56:46.970Z,11.10
2023-01-08T00:59:13.879Z,11.10
2023-01-08T01:01:41.117Z,11.00
2023-01-08T01:04:08.149Z,10.90
2023-01-08T01:06:35.463Z,10.90
2023-01-08T01:09:02.342Z,11.00
2023-01-08T01:11:29.453Z,11.00
2023-01-08T01:13:57.215Z,11.00
2023-01-08T01:16:24.632Z,11.00
2023-01-08T01:18:52.421Z,11.00
2023-01-08T01:21:23.564Z,11.00
2023-01-08T01:23:50.877Z,10.90
2023-01-08T01:26:19.575Z,10.90
2023-01-08T01:28:51.433Z,10.90
2023-01-08T01:31:18.991Z,10.90
2023-01-08T01:33:46.545Z,10.90
2023-01-08T01:36:15.623Z,10.90
2023-01-08T01:38:46.790Z,10.90
2023-01-08T01:41:27.742Z,10.90
2023-01-08T01:44:21.502Z,10.90
2023-01-08T01:46:49.587Z,11.00
2023-01-08T01:49:20.483Z,10.90
2023-01-08T01:51:56.027Z,10.90
2023-01-08T01:54:23.860Z,10.90
2023-01-08T01:56:51.060Z,10.90
2023-01-08T01:59:18.118Z,10.80
2023-01-08T02:01:45.915Z,10.90
2023-01-08T02:04:13.945Z,10.90
2023-01-08T02:07:01.717Z,10.90
2023-01-08T02:09:37.582Z,10.90
2023-01-08T02:12:16.591Z,10.90
2023-01-08T02:18:06.571Z,10.80
2023-01-08T02:20:45.029Z,10.80
2023-01-08T02:23:38.667Z,10.80
2023-01-08T02:26:29.187Z,10.80
2023-01-08T02:29:04.788Z,10.80
2023-01-08T02:31:32.953Z,10.80
2023-01-08T02:34:00.335Z,10.70
2023-01-08T02:36:43.715Z,10.70
2023-01-08T02:39:35.579Z,10.70
2023-01-08T02:42:20.931Z,10.70
2023-01-08T02:45:32.621Z,10.70
2023-01-08T02:48:31.307Z,10.80
2023-01-08T02:51:30.675Z,10.80
2023-01-08T02:54:11.257Z,10.80
2023-01-08T02:56:43.586Z,10.70
2023-01-08T02:59:12.939Z,10.70
2023-01-08T03:01:41.266Z,10.70
2023-01-08T03:04:16.437Z,10.60
2023-01-08T03:06:44.204Z,10.70
2023-01-08T03:09:11.701Z,10.70
2023-01-08T03:11:44.137Z,10.70
2023-01-08T03:14:22.971Z,10.70
2023-01-08T03:16:58.332Z,10.70
2023-01-08T03:19:36.305Z,10.70
2023-01-08T03:22:07.187Z,10.60
2023-01-08T03:24:37.403Z,10.60
2023-01-08T03:27:07.256Z,10.60
2023-01-08T03:29:34.227Z,10.60
2023-01-08T03:32:06.678Z,10.60
2023-01-08T03:34:37.452Z,10.50
2023-01-08T03:37:07.862Z,10.60
2023-01-08T03:39:43.752Z,10.50
2023-01-08T03:42:13.823Z,10.60
2023-01-08T03:44:40.870Z,10.50
2023-01-08T03:47:10.078Z,10.50
2023-01-08T03:49:39.024Z,10.50
2023-01-08T03:52:06.417Z,10.50
2023-01-08T03:54:35.572Z,10.50
2023-01-08T03:57:02.776Z,10.50
2023-01-08T03:59:29.753Z,10.50
2023-01-08T04:01:56.706Z,10.50
2023-01-08T04:04:23.758Z,10.50
2023-01-08T04:06:52.685Z,10.40
2023-01-08T04:09:19.699Z,10.40
2023-01-08T04:11:46.477Z,10.40
2023-01-08T04:14:13.518Z,10.30
2023-01-08T04:16:40.320Z,10.30
2023-01-08T04:19:07.141Z,10.30
2023-01-08T04:21:33.986Z,10.30
2023-01-08T04:24:00.962Z,10.30
2023-01-08T04:26:27.780Z,10.30
2023-01-08T04:28:54.586Z,10.30
2023-01-08T04:31:21.501Z,10.30
2023-01-08T04:33:48.416Z,10.30
2023-01-08T04:36:15.581Z,10.30
2023-01-08T04:38:42.645Z,10.30
2023-01-08T04:41:09.478Z,10.30
2023-01-08T04:43:36.360Z,10.20
2023-01-08T04:46:07.611Z,10.30
2023-01-08T04:48:34.844Z,10.30
2023-01-08T04:51:03.509Z,10.30
2023-01-08T04:53:33.692Z,10.30
2023-01-08T04:56:09.218Z,10.30
2023-01-08T04:58:37.184Z,10.30
2023-01-08T05:01:22.083Z,10.30
2023-01-08T05:03:56.635Z,10.40
2023-01-08T05:06:24.290Z,10.40
2023-01-08T05:08:51.099Z,10.40
2023-01-08T05:11:18.126Z,10.50
2023-01-08T05:13:48.876Z,10.50
2023-01-08T05:16:16.696Z,10.50
2023-01-08T05:18:44.872Z,10.50
2023-01-08T05:21:12.288Z,10.50
2023-01-08T05:23:39.135Z,10.50
2023-01-08T05:26:07.159Z,10.50
2023-01-08T05:28:34.301Z,10.50
2023-01-08T05:31:01.217Z,10.60
2023-01-08T05:33:28.304Z,10.60
2023-01-08T05:35:55.255Z,10.60
2023-01-08T05:38:22.676Z,10.50
2023-01-08T05:40:53.265Z,10.50
2023-01-08T05:43:20.278Z,10.60
2023-01-08T05:45:47.231Z,10.60
2023-01-08T05:48:14.096Z,10.60
2023-01-08T05:50:40.928Z,10.60
2023-01-08T05:53:08.710Z,10.60
2023-01-08T05:55:36.008Z,10.60
2023-01-08T05:58:06.626Z,10.70
2023-01-08T06:00:35.033Z,10.70
2023-01-08T06:03:01.900Z,10.70
2023-01-08T06:05:31.002Z,10.70
2023-01-08T06:07:59.045Z,10.80
2023-01-08T06:10:26.752Z,10.80
2023-01-08T06:12:53.572Z,10.80
2023-01-08T06:15:20.526Z,10.80
2023-01-08T06:17:47.295Z,10.80
2023-01-08T06:20:14.106Z,10.80
2023-01-08T06:22:41.049Z,10.80
2023-01-08T06:25:08.159Z,10.80
2023-01-08T06:27:34.931Z,10.80
2023-01-08T06:30:01.796Z,10.80
2023-01-08T06:32:28.565Z,10.80
2023-01-08T06:34:55.394Z,10.80
2023-01-08T06:37:22.190Z,10.80
2023-01-08T06:39:49.024Z,10.70
2023-01-08T06:42:15.877Z,10.80
2023-01-08T06:44:42.757Z,10.80
2023-01-08T06:47:09.677Z,10.70
2023-01-08T06:49:36.552Z,10.80
2023-01-08T06:52:03.402Z,10.70
2023-01-08T06:54:30.213Z,10.70
2023-01-08T06:56:56.974Z,10.70
2023-01-08T06:59:24.170Z,10.70
2023-01-08T07:01:51.254Z,10.70
2023-01-08T07:04:18.895Z,10.70
2023-01-08T07:06:46.105Z,10.70
2023-01-08T07:09:14.591Z,11.00
2023-01-08T07:11:42.328Z,10.70
2023-01-08T07:14:09.623Z,10.70
2023-01-08T07:16:36.478Z,10.80
2023-01-08T07:19:03.372Z,10.80
2023-01-08T07:21:31.092Z,10.80
2023-01-08T07:23:59.490Z,10.90
2023-01-08T07:26:26.638Z,10.90
2023-01-08T07:28:53.567Z,11.00
2023-01-08T07:31:20.369Z,11.00
2023-01-08T07:33:47.441Z,11.00
2023-01-08T07:36:15.665Z,11.00
2023-01-08T07:38:43.061Z,11.10
2023-01-08T07:41:09.889Z,11.10
2023-01-08T07:43:37.043Z,11.10
2023-01-08T07:46:04.164Z,11.20
2023-01-08T07:48:31.235Z,11.20
2023-01-08T07:51:05.991Z,11.20
2023-01-08T07:53:33.229Z,11.30
2023-01-08T07:56:04.732Z,11.30
2023-01-08T07:58:31.886Z,11.30
2023-01-08T08:00:59.453Z,11.30
2023-01-08T08:03:26.890Z,11.30
2023-01-08T08:05:53.765Z,11.30
2023-01-08T08:08:20.865Z,11.40
2023-01-08T08:10:47.740Z,11.30
2023-01-08T08:13:15.561Z,11.40
2023-01-08T08:15:42.488Z,11.40
2023-01-08T08:18:10.036Z,11.40
2023-01-08T08:20:37.376Z,11.40
2023-01-08T08:23:13.851Z,11.30
2023-01-08T08:25:42.234Z,11.40
2023-01-08T08:28:10.869Z,11.40
2023-01-08T08:30:40.595Z,11.40
2023-01-08T08:33:09.090Z,11.40
2023-01-08T08:35:36.170Z,11.40
2023-01-08T08:38:03.339Z,11.40
2023-01-08T08:40:30.298Z,11.40
2023-01-08T08:43:02.666Z,11.40
2023-01-08T08:45:30.036Z,11.30
2023-01-08T08:47:56.977Z,11.40
2023-01-08T08:50:23.916Z,11.30
2023-01-08T08:52:50.802Z,11.30
2023-01-08T08:55:18.338Z,11.30
2023-01-08T08:57:46.498Z,11.40
2023-01-08T09:00:14.725Z,11.30
2023-01-08T09:02:41.797Z,11.40
2023-01-08T09:05:09.032Z,11.30
2023-01-08T09:07:36.756Z,11.40
2023-01-08T09:10:04.705Z,11.40
2023-01-08T09:12:31.558Z,11.30
2023-01-08T09:14:58.454Z,11.30
2023-01-08T09:17:26.009Z,11.30
2023-01-08T09:19:53.039Z,11.30
2023-01-08T09:22:20.335Z,11.20
2023-01-08T09:24:47.288Z,11.30
2023-01-08T09:27:14.735Z,11.30
2023-01-08T09:29:41.738Z,11.30
2023-01-08T09:32:08.974Z,11.30
2023-01-08T09:34:39.112Z,11.30
2023-01-08T09:37:06.315Z,11.30
2023-01-08T09:39:33.712Z,11.40
2023-01-08T09:42:05.483Z,11.30
2023-01-08T09:44:37.921Z,11.30
2023-01-08T09:47:07.498Z,11.30
2023-01-08T09:49:40.546Z,11.30
2023-01-08T09:52:12.241Z,11.30
2023-01-08T09:54:40.722Z,11.30
2023-01-08T09:57:15.949Z,11.40
2023-01-08T09:59:44.007Z,11.40
2023-01-08T10:02:22.805Z,11.50
2023-01-08T10:05:00.738Z,11.60
2023-01-08T10:07:29.030Z,11.80
2023-01-08T10:09:56.306Z,11.90
2023-01-08T10:12:31.840Z,11.90
2023-01-08T10:15:05.762Z,12.00
2023-01-08T10:17:42.094Z,12.20
2023-01-08T10:20:14.786Z,12.20
2023-01-08T10:22:41.996Z,12.30
2023-01-08T10:25:14.842Z,12.30
2023-01-08T10:28:02.367Z,12.30
2023-01-08T10:30:33.701Z,12.20
2023-01-08T10:33:18.038Z,12.20
2023-01-08T10:36:00.178Z,12.20
2023-01-08T10:38:38.097Z,12.30
2023-01-08T10:41:13.549Z,12.30
2023-01-08T10:44:13.549Z,12.30
2023-01-08T10:46:48.180Z,12.30
2023-01-08T10:49:21.145Z,12.40
2023-01-08T10:51:53.495Z,12.50
2023-01-08T10:54:38.670Z,12.60
2023-01-08T10:57:26.877Z,12.80
2023-01-08T10:59:55.316Z,12.90
2023-01-08T11:02:32.899Z,13.00
2023-01-08T11:05:01.445Z,12.80
2023-01-08T11:07:29.154Z,13.10
2023-01-08T11:09:56.404Z,13.20
2023-01-08T11:12:39.980Z,13.20
2023-01-08T11:15:17.744Z,13.10
2023-01-08T11:17:45.170Z,13.00
2023-01-08T11:20:29.711Z,12.90
2023-01-08T11:23:26.965Z,12.80
2023-01-08T11:26:09.265Z,12.70
2023-01-08T11:28:42.046Z,12.60
2023-01-08T11:31:21.638Z,12.50
2023-01-08T11:33:56.880Z,12.50
2023-01-08T11:36:30.341Z,12.50
2023-01-08T11:38:57.353Z,12.60
2023-01-08T11:41:38.939Z,12.60
2023-01-08T11:44:25.198Z,12.50
2023-01-08T11:47:05.164Z,12.60
2023-01-08T11:50:14.903Z,12.50
2023-01-08T11:52:48.245Z,12.50
2023-01-08T11:55:37.744Z,12.50
2023-01-08T11:58:25.057Z,12.60
2023-01-08T12:00:57.633Z,12.70
2023-01-08T12:04:00.655Z,12.70
2023-01-08T12:06:50.192Z,12.80
2023-01-08T12:09:46.247Z,12.90
2023-01-08T12:12:19.285Z,12.90
2023-01-08T12:14:57.621Z,12.90
2023-01-08T12:17:38.787Z,12.90
2023-01-08T12:20:24.849Z,12.80
2023-01-08T12:23:20.143Z,12.80
2023-01-08T12:26:05.501Z,12.90
2023-01-08T12:28:32.335Z,12.90
2023-01-08T12:31:07.972Z,12.90
2023-01-08T12:33:41.228Z,12.90
2023-01-08T12:36:26.449Z,13.00
2023-01-08T12:39:00.035Z,13.00
2023-01-08T12:41:27.411Z,13.00
2023-01-08T12:44:04.928Z,13.00
2023-01-08T12:46:34.377Z,13.00
2023-01-08T12:49:04.233Z,13.00
2023-01-08T12:51:46.069Z,13.00
2023-01-08T12:54:31.886Z,13.00
2023-01-08T12:57:22.867Z,13.00
2023-01-08T13:00:17.309Z,12.90
2023-01-08T13:03:00.799Z,13.00
2023-01-08T13:05:27.778Z,13.00
2023-01-08T13:08:17.058Z,13.00
2023-01-08T13:10:53.806Z,13.00
2023-01-08T13:13:36.380Z,12.90
2023-01-08T13:16:21.792Z,13.00
2023-01-08T13:19:00.407Z,12.90
2023-01-08T13:21:33.540Z,12.90
2023-01-08T13:24:23.652Z,12.90
2023-01-08T13:26:50.562Z,13.00
2023-01-08T13:29:37.115Z,12.90
2023-01-08T13:32:05.116Z,13.00
2023-01-08T13:34:42.351Z,13.00
2023-01-08T13:37:19.693Z,13.00
2023-01-08T13:39:56.432Z,13.00
2023-01-08T13:42:28.713Z,13.00
2023-01-08T13:45:02.246Z,13.00
2023-01-08T13:47:33.275Z,13.00
2023-01-08T13:50:04.238Z,13.00
2023-01-08T13:52:43.143Z,13.00
2023-01-08T13:55:19.212Z,13.10
2023-01-08T13:57:52.138Z,13.00
2023-01-08T14:00:24.991Z,13.00
2023-01-08T14:02:54.931Z,12.90
2023-01-08T14:05:26.693Z,13.00
2023-01-08T14:07:54.135Z,13.00
2023-01-08T14:10:21.960Z,13.00
2023-01-08T14:12:49.892Z,13.00
2023-01-08T14:15:26.599Z,13.10
2023-01-08T14:17:55.867Z,13.10
2023-01-08T14:20:44.855Z,13.10
2023-01-08T14:23:18.749Z,13.10
2023-01-08T14:25:49.645Z,13.00
2023-01-08T14:28:21.314Z,13.10
2023-01-08T14:30:56.208Z,13.10
2023-01-08T14:33:33.924Z,13.10
2023-01-08T14:36:02.516Z,13.10
2023-01-08T14:38:29.482Z,13.10
2023-01-08T14:41:09.419Z,13.20
2023-01-08T14:43:42.352Z,13.20
2023-01-08T14:46:26.747Z,13.10
2023-01-08T14:48:57.877Z,13.10
2023-01-08T14:51:29.027Z,13.20
2023-01-08T14:54:01.682Z,13.10
2023-01-08T14:56:33.931Z,13.10
2023-01-08T14:59:06.745Z,13.10
2023-01-08T15:01:34.957Z,13.40
2023-01-08T15:04:20.269Z,13.10
2023-01-08T15:06:51.203Z,13.10
2023-01-08T15:09:31.086Z,13.10
2023-01-08T15:11:59.366Z,13.10
2023-01-08T15:14:28.263Z,13.10
2023-01-08T15:16:59.804Z,13.00
2023-01-08T15:19:39.266Z,13.00
2023-01-08T15:22:16.483Z,13.00
2023-01-08T15:24:45.786Z,13.00
2023-01-08T15:27:19.798Z,13.00
2023-01-08T15:29:53.033Z,13.00
2023-01-08T15:32:27.392Z,12.90
2023-01-08T15:34:54.409Z,13.00
2023-01-08T15:37:21.441Z,13.00
2023-01-08T15:39:48.386Z,13.00
2023-01-08T15:42:49.085Z,13.00
2023-01-08T15:45:21.427Z,12.90
2023-01-08T15:47:48.691Z,13.00
2023-01-08T15:50:15.623Z,12.90
2023-01-08T15:52:44.009Z,12.90
2023-01-08T15:55:17.530Z,12.90
2023-01-08T15:57:44.700Z,12.90
2023-01-08T16:00:16.764Z,12.90
2023-01-08T16:02:48.719Z,13.00
2023-01-08T16:05:17.871Z,13.00
2023-01-08T16:07:47.507Z,13.00
2023-01-08T16:10:15.138Z,13.00
2023-01-08T16:12:43.493Z,13.00
2023-01-08T16:15:11.678Z,12.90
2023-01-08T16:17:38.646Z,12.90
2023-01-08T16:20:06.956Z,12.90
2023-01-08T16:22:34.060Z,12.90
2023-01-08T16:25:01.096Z,12.90
2023-01-08T16:27:28.221Z,12.90
2023-01-08T16:29:55.165Z,12.90
2023-01-08T16:32:22.110Z,13.10
2023-01-08T16:34:49.061Z,12.90
2023-01-08T16:37:15.926Z,12.90
2023-01-08T16:39:42.942Z,12.90
2023-01-08T16:42:11.967Z,12.90
2023-01-08T16:44:39.453Z,12.90
2023-01-08T16:47:06.511Z,12.80
2023-01-08T16:49:33.679Z,12.80
2023-01-08T16:52:00.827Z,12.80
2023-01-08T16:54:27.836Z,12.80
2023-01-08T16:56:54.765Z,12.70
2023-01-08T16:59:23.999Z,12.70
2023-01-08T17:01:52.151Z,12.70
2023-01-08T17:04:19.901Z,12.60
2023-01-08T17:06:47.072Z,12.60
2023-01-08T17:09:15.496Z,12.60
2023-01-08T17:11:42.853Z,12.60
2023-01-08T17:14:10.101Z,12.60
2023-01-08T17:16:37.417Z,12.60
2023-01-08T17:19:04.885Z,12.60
2023-01-08T17:21:33.685Z,12.50
2023-01-08T17:24:00.722Z,12.50
2023-01-08T17:26:27.673Z,12.50
2023-01-08T17:28:57.123Z,12.50
2023-01-08T17:31:24.299Z,12.50
2023-01-08T17:33:51.655Z,12.50
2023-01-08T17:36:24.311Z,12.50
2023-01-08T17:38:54.251Z,12.50
2023-01-08T17:41:54.933Z,12.50
2023-01-08T17:44:22.269Z,12.40
2023-01-08T17:46:49.228Z,12.40
2023-01-08T17:49:17.254Z,12.40
2023-01-08T17:51:45.731Z,12.40
2023-01-08T17:54:15.279Z,12.40
2023-01-08T17:56:42.886Z,12.40
2023-01-08T17:59:18.873Z,12.40
2023-01-08T18:01:46.364Z,12.40
2023-01-08T18:04:14.278Z,12.40
2023-01-08T18:06:42.442Z,12.40
2023-01-08T18:09:13.055Z,12.40
2023-01-08T18:11:41.317Z,12.40
2023-01-08T18:14:10.500Z,12.40
2023-01-08T18:16:37.931Z,12.30
2023-01-08T18:19:04.903Z,12.40
2023-01-08T18:21:32.069Z,12.40
2023-01-08T18:23:58.962Z,12.30
2023-01-08T18:26:26.799Z,12.30
2023-01-08T18:28:53.782Z,12.30
2023-01-08T18:31:21.437Z,12.30
2023-01-08T18:33:52.378Z,12.30
2023-01-08T18:36:20.301Z,12.30
2023-01-08T18:38:47.943Z,12.30
2023-01-08T18:41:36.411Z,12.30
2023-01-08T18:44:05.661Z,12.20
2023-01-08T18:46:32.930Z,12.20
2023-01-08T18:52:32.597Z,12.20
2023-01-08T18:54:59.702Z,12.20
2023-01-08T18:57:27.242Z,12.20
2023-01-08T19:03:19.315Z,12.10
2023-01-08T19:05:47.032Z,12.40
2023-01-08T19:08:13.935Z,12.20
2023-01-08T19:10:43.384Z,12.10
2023-01-08T19:13:10.261Z,12.10
2023-01-08T19:15:37.366Z,12.20
2023-01-08T19:18:05.694Z,12.10
2023-01-08T19:20:32.732Z,12.10
2023-01-08T19:22:59.639Z,12.10
2023-01-08T19:25:26.894Z,12.10
2023-01-08T19:27:55.872Z,12.10
2023-01-08T19:30:22.915Z,12.10
2023-01-08T19:33:29.214Z,12.10
2023-01-08T19:43:24.816Z,12.00
2023-01-08T19:45:54.680Z,12.00
2023-01-08T19:48:22.921Z,12.00
2023-01-08T19:50:50.466Z,12.30
2023-01-08T19:53:17.772Z,12.00
2023-01-08T19:55:45.516Z,12.00
2023-01-08T19:58:12.971Z,12.00
2023-01-08T20:00:40.695Z,12.00
2023-01-08T20:03:07.669Z,12.00
2023-01-08T20:05:34.689Z,12.00
2023-01-08T20:08:01.664Z,12.00
2023-01-08T20:10:28.688Z,12.00
2023-01-08T20:12:55.618Z,12.00
2023-01-08T20:15:23.326Z,12.10
2023-01-08T20:17:50.223Z,12.00
2023-01-08T20:20:17.270Z,12.00
2023-01-08T20:22:44.408Z,12.00
2023-01-08T20:25:11.515Z,12.10
2023-01-08T20:27:38.405Z,12.10
2023-01-08T20:30:07.056Z,12.10
2023-01-08T20:32:34.076Z,12.10
2023-01-08T20:35:04.568Z,12.10
2023-01-08T20:37:32.308Z,12.10
2023-01-08T20:39:59.432Z,12.10
2023-01-08T20:42:33.393Z,12.10
2023-01-08T20:45:00.897Z,12.10
2023-01-08T20:47:28.018Z,12.10
2023-01-08T20:49:55.057Z,12.10
2023-01-08T20:52:24.569Z,12.10
2023-01-08T20:54:53.101Z,12.00
2023-01-08T20:57:20.135Z,12.10
2023-01-08T20:59:47.424Z,12.10
2023-01-08T21:02:14.389Z,12.20
2023-01-08T21:04:44.007Z,12.10
2023-01-08T21:07:14.070Z,12.20
2023-01-08T21:09:41.042Z,12.20
2023-01-08T21:12:10.959Z,12.20
2023-01-08T21:14:53.466Z,11.90
2023-01-08T21:17:54.506Z,12.10
2023-01-08T21:20:31.373Z,12.00
2023-01-08T21:23:04.353Z,12.10
2023-01-08T21:25:36.447Z,12.10
2023-01-08T21:28:10.039Z,12.20
2023-01-08T21:30:55.554Z,12.20
2023-01-08T21:33:25.481Z,12.20
2023-01-08T21:35:55.245Z,12.10
2023-01-08T21:38:22.544Z,12.20
2023-01-08T21:40:59.763Z,12.20
2023-01-08T21:43:51.358Z,12.20
2023-01-08T21:46:56.263Z,12.10
2023-01-08T21:49:31.948Z,12.20
2023-01-08T21:52:20.286Z,12.20
2023-01-08T21:57:39.282Z,12.20
2023-01-08T22:00:07.475Z,12.10
2023-01-08T22:02:35.030Z,12.10
2023-01-08T22:05:04.691Z,12.20
2023-01-08T22:07:32.558Z,12.10
2023-01-08T22:10:28.330Z,12.10
2023-01-08T22:13:02.295Z,12.20
2023-01-08T22:16:14.926Z,12.20
2023-01-08T22:19:24.297Z,12.20
2023-01-08T22:21:51.400Z,12.10
2023-01-08T22:24:30.659Z,12.10
2023-01-08T22:27:00.888Z,12.10
2023-01-08T22:29:53.491Z,12.10
2023-01-08T22:32:31.544Z,12.10
2023-01-08T22:34:58.899Z,11.80
2023-01-08T22:37:25.809Z,12.10
2023-01-08T22:39:53.140Z,12.10
2023-01-08T22:42:20.228Z,12.10
2023-01-08T22:44:49.549Z,12.10
2023-01-08T22:47:16.622Z,12.10
2023-01-08T22:49:43.739Z,12.20
2023-01-08T22:52:16.897Z,12.10
2023-01-08T22:55:05.266Z,12.10
2023-01-08T22:57:55.620Z,11.90
2023-01-08T23:00:27.328Z,12.20
2023-01-08T23:03:07.917Z,12.20
2023-01-08T23:06:03.911Z,12.20
2023-01-08T23:08:31.137Z,12.20
2023-01-08T23:10:58.403Z,12.20
2023-01-08T23:13:25.517Z,12.20
2023-01-08T23:15:52.521Z,12.20
2023-01-08T23:18:19.776Z,12.20
2023-01-08T23:20:46.828Z,12.20
2023-01-08T23:23:14.035Z,12.30
2023-01-08T23:25:41.112Z,12.30
2023-01-08T23:28:08.125Z,12.30
2023-01-08T23:30:35.557Z,12.30
2023-01-08T23:33:02.563Z,12.30
2023-01-08T23:35:29.518Z,12.30
2023-01-08T23:37:56.604Z,12.40
2023-01-08T23:40:23.647Z,12.30
2023-01-08T23:42:50.756Z,12.40
2023-01-08T23:45:17.972Z,12.40
2023-01-08T23:47:45.115Z,12.40
2023-01-08T23:50:12.664Z,12.40
2023-01-08T23:52:39.856Z,12.40
2023-01-08T23:55:07.161Z,12.40
2023-01-08T23:57:34.477Z,12.40
